CCA6043 YSSY-YMML
Flight info
| Callsign | CCA6043 |
|---|---|
| Flight time | 1h 7m |
| Altitude | 34000 |
| Route | WOL H65 LEECE Q29 ML |
| Aircraft | B738/M-SDE2E3FGHIRWXY/LB1 |
Departure
| Time | 2026-04-30 08:44 |
|---|---|
| Airport | Sydney Kingsford Smith International Airport (YSSY) |
Arrival
| Time | 2026-04-30 09:51 |
|---|---|
| Airport | Melbourne Airport (YMML) |
| Time | Latitude | Longitude | Altitude | Speed | Heading |
|---|---|---|---|---|---|
| 2026-04-30 07:55 | -33.93798 | 151.16945 | 28 ft | 0 kts | 254° |
| 2026-04-30 08:20 | -33.93795 | 151.16957 | 12 ft | 4 kts | 252° |
| 2026-04-30 08:20 | -33.93785 | 151.16987 | 29 ft | 4 kts | 244° |
| 2026-04-30 08:20 | -33.93772 | 151.17016 | 29 ft | 4 kts | 235° |
| 2026-04-30 08:20 | -33.93755 | 151.17040 | 29 ft | 4 kts | 219° |
| 2026-04-30 08:21 | -33.93734 | 151.17054 | 29 ft | 2 kts | 189° |
| 2026-04-30 08:21 | -33.93733 | 151.17054 | 29 ft | 1 kts | 188° |
| 2026-04-30 08:22 | -33.93750 | 151.17055 | 29 ft | 4 kts | 178° |
| 2026-04-30 08:23 | -33.93777 | 151.17059 | 29 ft | 4 kts | 169° |
| 2026-04-30 08:23 | -33.93804 | 151.17066 | 29 ft | 4 kts | 167° |
| 2026-04-30 08:23 | -33.93830 | 151.17073 | 29 ft | 4 kts | 167° |
| 2026-04-30 08:23 | -33.93855 | 151.17081 | 29 ft | 4 kts | 167° |
| 2026-04-30 08:24 | -33.93880 | 151.17087 | 29 ft | 4 kts | 167° |
| 2026-04-30 08:24 | -33.93905 | 151.17094 | 29 ft | 4 kts | 168° |
| 2026-04-30 08:24 | -33.93933 | 151.17101 | 29 ft | 5 kts | 168° |
| 2026-04-30 08:24 | -33.93982 | 151.17129 | 29 ft | 8 kts | 126° |
| 2026-04-30 08:25 | -33.93984 | 151.17136 | 29 ft | 0 kts | 114° |
| 2026-04-30 08:25 | -33.93985 | 151.17137 | 29 ft | 1 kts | 112° |
| 2026-04-30 08:25 | -33.93984 | 151.17169 | 28 ft | 5 kts | 74° |
| 2026-04-30 08:25 | -33.93974 | 151.17209 | 28 ft | 5 kts | 74° |
| 2026-04-30 08:26 | -33.93965 | 151.17249 | 28 ft | 5 kts | 74° |
| 2026-04-30 08:26 | -33.93956 | 151.17288 | 27 ft | 5 kts | 74° |
| 2026-04-30 08:26 | -33.93955 | 151.17292 | 27 ft | 0 kts | 74° |
| 2026-04-30 08:26 | -33.93954 | 151.17295 | 27 ft | 3 kts | 74° |
| 2026-04-30 08:27 | -33.93940 | 151.17354 | 30 ft | 9 kts | 74° |
| 2026-04-30 08:27 | -33.93923 | 151.17427 | 30 ft | 9 kts | 73° |
| 2026-04-30 08:27 | -33.93904 | 151.17502 | 27 ft | 10 kts | 73° |
| 2026-04-30 08:27 | -33.93886 | 151.17582 | 28 ft | 9 kts | 74° |
| 2026-04-30 08:28 | -33.93872 | 151.17641 | 28 ft | 6 kts | 74° |
| 2026-04-30 08:28 | -33.93861 | 151.17688 | 28 ft | 6 kts | 74° |
| 2026-04-30 08:28 | -33.93855 | 151.17715 | 29 ft | 0 kts | 74° |
| 2026-04-30 08:28 | -33.93854 | 151.17716 | 29 ft | 1 kts | 74° |
| 2026-04-30 08:29 | -33.93852 | 151.17728 | 29 ft | 3 kts | 84° |
| 2026-04-30 08:29 | -33.93853 | 151.17742 | 29 ft | 1 kts | 91° |
| 2026-04-30 08:29 | -33.93853 | 151.17744 | 29 ft | 0 kts | 91° |
| 2026-04-30 08:30 | -33.93854 | 151.17746 | 29 ft | 1 kts | 97° |
| 2026-04-30 08:30 | -33.93867 | 151.17766 | 29 ft | 5 kts | 143° |
| 2026-04-30 08:31 | -33.93914 | 151.17784 | 28 ft | 10 kts | 168° |
| 2026-04-30 08:31 | -33.94014 | 151.17810 | 28 ft | 17 kts | 167° |
| 2026-04-30 08:31 | -33.94126 | 151.17839 | 28 ft | 16 kts | 168° |
| 2026-04-30 08:31 | -33.94237 | 151.17867 | 29 ft | 17 kts | 168° |
| 2026-04-30 08:32 | -33.94323 | 151.17889 | 29 ft | 10 kts | 168° |
| 2026-04-30 08:32 | -33.94392 | 151.17906 | 29 ft | 10 kts | 168° |
| 2026-04-30 08:32 | -33.94477 | 151.17899 | 29 ft | 13 kts | 206° |
| 2026-04-30 08:32 | -33.94564 | 151.17893 | 29 ft | 13 kts | 167° |
| 2026-04-30 08:33 | -33.94653 | 151.17916 | 29 ft | 14 kts | 168° |
| 2026-04-30 08:33 | -33.94744 | 151.17940 | 29 ft | 13 kts | 168° |
| 2026-04-30 08:33 | -33.94831 | 151.17962 | 29 ft | 13 kts | 168° |
| 2026-04-30 08:33 | -33.94916 | 151.17985 | 29 ft | 12 kts | 168° |
| 2026-04-30 08:34 | -33.94999 | 151.18007 | 29 ft | 12 kts | 167° |
| 2026-04-30 08:34 | -33.95078 | 151.18033 | 29 ft | 12 kts | 147° |
| 2026-04-30 08:34 | -33.95096 | 151.18120 | 29 ft | 11 kts | 71° |
| 2026-04-30 08:34 | -33.95080 | 151.18212 | 29 ft | 11 kts | 78° |
| 2026-04-30 08:35 | -33.95064 | 151.18302 | 29 ft | 11 kts | 77° |
| 2026-04-30 08:35 | -33.95049 | 151.18389 | 29 ft | 10 kts | 78° |
| 2026-04-30 08:35 | -33.95048 | 151.18394 | 29 ft | 0 kts | 78° |
| 2026-04-30 08:37 | -33.95047 | 151.18396 | 29 ft | 1 kts | 78° |
| 2026-04-30 08:37 | -33.95042 | 151.18429 | 29 ft | 7 kts | 78° |
| 2026-04-30 08:38 | -33.95062 | 151.18502 | 29 ft | 11 kts | 137° |
| 2026-04-30 08:38 | -33.95124 | 151.18556 | 29 ft | 11 kts | 140° |
| 2026-04-30 08:38 | -33.95180 | 151.18615 | 29 ft | 11 kts | 137° |
| 2026-04-30 08:38 | -33.95238 | 151.18674 | 29 ft | 12 kts | 145° |
| 2026-04-30 08:39 | -33.95344 | 151.18726 | 29 ft | 20 kts | 170° |
| 2026-04-30 08:39 | -33.95476 | 151.18762 | 29 ft | 19 kts | 167° |
| 2026-04-30 08:39 | -33.95603 | 151.18795 | 29 ft | 18 kts | 168° |
| 2026-04-30 08:39 | -33.95727 | 151.18826 | 29 ft | 18 kts | 168° |
| 2026-04-30 08:40 | -33.95846 | 151.18857 | 29 ft | 17 kts | 168° |
| 2026-04-30 08:40 | -33.95961 | 151.18886 | 29 ft | 17 kts | 167° |
| 2026-04-30 08:40 | -33.96084 | 151.18919 | 29 ft | 20 kts | 168° |
| 2026-04-30 08:40 | -33.96234 | 151.18958 | 29 ft | 22 kts | 168° |
| 2026-04-30 08:41 | -33.96382 | 151.18997 | 29 ft | 21 kts | 168° |
| 2026-04-30 08:41 | -33.96527 | 151.19033 | 29 ft | 21 kts | 168° |
| 2026-04-30 08:41 | -33.96667 | 151.19070 | 29 ft | 20 kts | 168° |
| 2026-04-30 08:41 | -33.96804 | 151.19065 | 29 ft | 20 kts | 177° |
| 2026-04-30 08:42 | -33.96936 | 151.19096 | 29 ft | 19 kts | 167° |
| 2026-04-30 08:42 | -33.97056 | 151.19127 | 29 ft | 16 kts | 168° |
| 2026-04-30 08:42 | -33.97088 | 151.19137 | 29 ft | 1 kts | 161° |
| 2026-04-30 08:42 | -33.97123 | 151.19188 | 29 ft | 13 kts | 99° |
| 2026-04-30 08:43 | -33.97109 | 151.19296 | 26 ft | 14 kts | 77° |
| 2026-04-30 08:43 | -33.97042 | 151.19364 | 26 ft | 14 kts | 359° |
| 2026-04-30 08:43 | -33.96823 | 151.19308 | 25 ft | 69 kts | 348° |
| 2026-04-30 08:43 | -33.96087 | 151.19123 | 29 ft | 144 kts | 350° |
| 2026-04-30 08:44 | -33.94912 | 151.18851 | 239 ft | 194 kts | 349° |
| 2026-04-30 08:44 | -33.93526 | 151.18478 | 991 ft | 211 kts | 350° |
| 2026-04-30 08:44 | -33.92063 | 151.18163 | 1840 ft | 214 kts | 358° |
| 2026-04-30 08:44 | -33.90819 | 151.18620 | 2566 ft | 171 kts | 48° |
| 2026-04-30 08:45 | -33.90327 | 151.19996 | 2864 ft | 200 kts | 91° |
| 2026-04-30 08:45 | -33.90781 | 151.21639 | 3140 ft | 222 kts | 121° |
| 2026-04-30 08:45 | -33.91969 | 151.22901 | 3355 ft | 247 kts | 152° |
| 2026-04-30 08:45 | -33.93719 | 151.23279 | 3566 ft | 267 kts | 185° |
| 2026-04-30 08:46 | -33.95522 | 151.22553 | 3783 ft | 275 kts | 206° |
| 2026-04-30 08:46 | -33.97183 | 151.21408 | 3965 ft | 275 kts | 211° |
| 2026-04-30 08:46 | -33.98804 | 151.20181 | 4142 ft | 275 kts | 211° |
| 2026-04-30 08:46 | -34.00404 | 151.18965 | 4328 ft | 276 kts | 211° |
| 2026-04-30 08:47 | -34.02002 | 151.17765 | 4840 ft | 267 kts | 211° |
| 2026-04-30 08:47 | -34.03600 | 151.16582 | 5400 ft | 273 kts | 210° |
| 2026-04-30 08:47 | -34.05253 | 151.15373 | 5999 ft | 282 kts | 210° |
| 2026-04-30 08:47 | -34.06961 | 151.14135 | 6629 ft | 291 kts | 210° |
| 2026-04-30 08:48 | -34.08720 | 151.12866 | 7236 ft | 299 kts | 210° |
| 2026-04-30 08:48 | -34.10530 | 151.11567 | 7837 ft | 307 kts | 210° |
| 2026-04-30 08:48 | -34.12387 | 151.10236 | 8436 ft | 314 kts | 210° |
| 2026-04-30 08:48 | -34.14292 | 151.08873 | 9062 ft | 321 kts | 210° |
| 2026-04-30 08:49 | -34.16235 | 151.07485 | 9691 ft | 328 kts | 210° |
| 2026-04-30 08:49 | -34.18218 | 151.06068 | 10318 ft | 334 kts | 210° |
| 2026-04-30 08:49 | -34.20234 | 151.04628 | 10888 ft | 340 kts | 210° |
| 2026-04-30 08:49 | -34.22287 | 151.03160 | 11471 ft | 345 kts | 210° |
| 2026-04-30 08:50 | -34.24367 | 151.01674 | 12059 ft | 350 kts | 210° |
| 2026-04-30 08:50 | -34.26473 | 151.00167 | 12658 ft | 354 kts | 211° |
| 2026-04-30 08:50 | -34.28598 | 150.98645 | 13272 ft | 358 kts | 211° |
| 2026-04-30 08:50 | -34.30757 | 150.97099 | 13898 ft | 361 kts | 211° |
| 2026-04-30 08:51 | -34.32928 | 150.95543 | 14495 ft | 364 kts | 211° |
| 2026-04-30 08:51 | -34.35114 | 150.93976 | 15053 ft | 366 kts | 211° |
| 2026-04-30 08:51 | -34.37284 | 150.92419 | 15622 ft | 369 kts | 211° |
| 2026-04-30 08:51 | -34.39502 | 150.90827 | 16206 ft | 371 kts | 211° |
| 2026-04-30 08:52 | -34.41727 | 150.89229 | 16798 ft | 373 kts | 211° |
| 2026-04-30 08:52 | -34.43959 | 150.87624 | 17401 ft | 374 kts | 210° |
| 2026-04-30 08:52 | -34.46202 | 150.86011 | 18015 ft | 375 kts | 210° |
| 2026-04-30 08:52 | -34.48448 | 150.84394 | 18641 ft | 376 kts | 210° |
| 2026-04-30 08:53 | -34.50697 | 150.82775 | 19201 ft | 376 kts | 210° |
| 2026-04-30 08:53 | -34.52947 | 150.81154 | 19753 ft | 376 kts | 210° |
| 2026-04-30 08:53 | -34.55181 | 150.79500 | 20315 ft | 377 kts | 215° |
| 2026-04-30 08:53 | -34.57030 | 150.77268 | 20882 ft | 376 kts | 232° |
| 2026-04-30 08:54 | -34.58581 | 150.74722 | 21487 ft | 375 kts | 234° |
| 2026-04-30 08:54 | -34.60116 | 150.72129 | 21758 ft | 384 kts | 234° |
| 2026-04-30 08:54 | -34.61692 | 150.69453 | 21952 ft | 394 kts | 234° |
| 2026-04-30 08:54 | -34.63310 | 150.66716 | 22144 ft | 404 kts | 234° |
| 2026-04-30 08:55 | -34.64974 | 150.63918 | 22336 ft | 413 kts | 234° |
| 2026-04-30 08:55 | -34.66677 | 150.61067 | 22527 ft | 421 kts | 233° |
| 2026-04-30 08:55 | -34.68418 | 150.58160 | 22725 ft | 429 kts | 233° |
| 2026-04-30 08:55 | -34.70190 | 150.55207 | 22907 ft | 436 kts | 233° |
| 2026-04-30 08:56 | -34.71992 | 150.52204 | 23098 ft | 443 kts | 233° |
| 2026-04-30 08:56 | -34.73817 | 150.49161 | 23295 ft | 448 kts | 233° |
| 2026-04-30 08:56 | -34.75663 | 150.46080 | 23482 ft | 454 kts | 233° |
| 2026-04-30 08:56 | -34.77531 | 150.42962 | 23747 ft | 456 kts | 234° |
| 2026-04-30 08:57 | -34.79381 | 150.39868 | 24395 ft | 449 kts | 234° |
| 2026-04-30 08:57 | -34.81204 | 150.36817 | 24968 ft | 443 kts | 233° |
| 2026-04-30 08:57 | -34.83001 | 150.33807 | 25560 ft | 437 kts | 233° |
| 2026-04-30 08:57 | -34.84772 | 150.30838 | 26164 ft | 431 kts | 233° |
| 2026-04-30 08:58 | -34.86523 | 150.27900 | 26772 ft | 425 kts | 233° |
| 2026-04-30 08:58 | -34.88243 | 150.25011 | 27412 ft | 418 kts | 233° |
| 2026-04-30 08:58 | -34.89915 | 150.22201 | 28051 ft | 412 kts | 233° |
| 2026-04-30 08:58 | -34.91582 | 150.19397 | 28707 ft | 405 kts | 233° |
| 2026-04-30 08:59 | -34.93220 | 150.16640 | 29378 ft | 398 kts | 233° |
| 2026-04-30 08:59 | -34.94824 | 150.13937 | 30063 ft | 390 kts | 233° |
| 2026-04-30 08:59 | -34.96410 | 150.11265 | 30451 ft | 391 kts | 233° |
| 2026-04-30 09:00 | -34.99679 | 150.05748 | 30439 ft | 410 kts | 234° |
| 2026-04-30 09:00 | -35.03082 | 149.99995 | 30454 ft | 427 kts | 234° |
| 2026-04-30 09:01 | -35.06619 | 149.94007 | 30453 ft | 442 kts | 234° |
| 2026-04-30 09:01 | -35.10275 | 149.87808 | 30442 ft | 457 kts | 234° |
| 2026-04-30 09:02 | -35.15788 | 149.78438 | 31744 ft | 435 kts | 234° |
| 2026-04-30 09:02 | -35.17504 | 149.75516 | 32322 ft | 425 kts | 234° |
| 2026-04-30 09:02 | -35.19229 | 149.72576 | 32400 ft | 427 kts | 234° |
| 2026-04-30 09:03 | -35.22668 | 149.66707 | 32420 ft | 423 kts | 234° |
| 2026-04-30 09:03 | -35.26087 | 149.60862 | 32435 ft | 422 kts | 234° |
| 2026-04-30 09:04 | -35.29494 | 149.55029 | 32435 ft | 421 kts | 234° |
| 2026-04-30 09:04 | -35.32897 | 149.49193 | 32436 ft | 421 kts | 234° |
| 2026-04-30 09:05 | -35.36302 | 149.43343 | 32429 ft | 422 kts | 234° |
| 2026-04-30 09:05 | -35.39703 | 149.37491 | 32421 ft | 422 kts | 234° |
| 2026-04-30 09:06 | -35.43107 | 149.31623 | 32430 ft | 423 kts | 235° |
| 2026-04-30 09:06 | -35.46515 | 149.25738 | 32432 ft | 423 kts | 235° |
| 2026-04-30 09:07 | -35.49930 | 149.19831 | 32432 ft | 424 kts | 235° |
| 2026-04-30 09:07 | -35.53342 | 149.13920 | 32428 ft | 425 kts | 235° |
| 2026-04-30 09:08 | -35.56762 | 149.07985 | 32436 ft | 426 kts | 235° |
| 2026-04-30 09:08 | -35.60181 | 149.02042 | 32439 ft | 426 kts | 235° |
| 2026-04-30 09:09 | -35.63596 | 148.96095 | 32449 ft | 426 kts | 236° |
| 2026-04-30 09:09 | -35.67007 | 148.90144 | 32451 ft | 426 kts | 236° |
| 2026-04-30 09:10 | -35.70414 | 148.84191 | 32456 ft | 425 kts | 236° |
| 2026-04-30 09:10 | -35.73816 | 148.78237 | 32455 ft | 425 kts | 236° |
| 2026-04-30 09:11 | -35.77207 | 148.72290 | 32456 ft | 424 kts | 236° |
| 2026-04-30 09:11 | -35.80573 | 148.66379 | 32456 ft | 424 kts | 236° |
| 2026-04-30 09:12 | -35.83953 | 148.60430 | 32449 ft | 423 kts | 236° |
| 2026-04-30 09:12 | -35.87328 | 148.54484 | 32459 ft | 423 kts | 236° |
| 2026-04-30 09:13 | -35.90695 | 148.48527 | 32450 ft | 423 kts | 236° |
| 2026-04-30 09:13 | -35.94055 | 148.42561 | 32446 ft | 423 kts | 237° |
| 2026-04-30 09:14 | -35.97405 | 148.36601 | 32440 ft | 423 kts | 237° |
| 2026-04-30 09:14 | -36.00760 | 148.30624 | 32437 ft | 424 kts | 237° |
| 2026-04-30 09:15 | -36.03548 | 148.25648 | 32428 ft | 424 kts | 237° |
| 2026-04-30 09:15 | -36.07470 | 148.18637 | 32428 ft | 425 kts | 237° |
| 2026-04-30 09:16 | -36.10832 | 148.12616 | 32417 ft | 426 kts | 237° |
| 2026-04-30 09:16 | -36.13630 | 148.07606 | 32420 ft | 426 kts | 237° |
| 2026-04-30 09:17 | -36.17010 | 148.01565 | 32095 ft | 432 kts | 237° |
| 2026-04-30 09:17 | -36.18724 | 147.98496 | 31555 ft | 433 kts | 237° |
| 2026-04-30 09:17 | -36.20431 | 147.95436 | 31047 ft | 431 kts | 238° |
| 2026-04-30 09:18 | -36.22132 | 147.92387 | 30553 ft | 429 kts | 238° |
| 2026-04-30 09:18 | -36.23825 | 147.89348 | 29992 ft | 429 kts | 238° |
| 2026-04-30 09:18 | -36.25516 | 147.86307 | 29431 ft | 429 kts | 238° |
| 2026-04-30 09:18 | -36.27207 | 147.83262 | 28873 ft | 429 kts | 238° |
| 2026-04-30 09:19 | -36.28898 | 147.80217 | 28332 ft | 428 kts | 238° |
| 2026-04-30 09:19 | -36.30585 | 147.77176 | 27788 ft | 427 kts | 238° |
| 2026-04-30 09:19 | -36.32265 | 147.74148 | 27262 ft | 425 kts | 238° |
| 2026-04-30 09:19 | -36.33932 | 147.71137 | 26743 ft | 423 kts | 238° |
| 2026-04-30 09:20 | -36.35590 | 147.68137 | 26237 ft | 421 kts | 238° |
| 2026-04-30 09:20 | -36.37241 | 147.65144 | 25738 ft | 419 kts | 238° |
| 2026-04-30 09:20 | -36.38872 | 147.62186 | 25518 ft | 410 kts | 238° |
| 2026-04-30 09:20 | -36.40458 | 147.59308 | 25425 ft | 398 kts | 238° |
| 2026-04-30 09:21 | -36.41996 | 147.56517 | 25400 ft | 384 kts | 239° |
| 2026-04-30 09:21 | -36.43478 | 147.53826 | 25380 ft | 371 kts | 239° |
| 2026-04-30 09:21 | -36.44898 | 147.51243 | 25570 ft | 354 kts | 239° |
| 2026-04-30 09:21 | -36.46273 | 147.48737 | 25858 ft | 352 kts | 239° |
| 2026-04-30 09:22 | -36.47659 | 147.46203 | 26157 ft | 357 kts | 239° |
| 2026-04-30 09:22 | -36.49064 | 147.43630 | 26459 ft | 362 kts | 239° |
| 2026-04-30 09:22 | -36.50489 | 147.41024 | 26756 ft | 366 kts | 239° |
| 2026-04-30 09:22 | -36.51928 | 147.38389 | 27061 ft | 371 kts | 239° |
| 2026-04-30 09:23 | -36.53387 | 147.35721 | 27368 ft | 374 kts | 239° |
| 2026-04-30 09:23 | -36.54855 | 147.33034 | 27677 ft | 378 kts | 239° |
| 2026-04-30 09:23 | -36.56339 | 147.30315 | 27986 ft | 381 kts | 239° |
| 2026-04-30 09:23 | -36.57832 | 147.27579 | 28288 ft | 384 kts | 239° |
| 2026-04-30 09:24 | -36.59314 | 147.24860 | 28607 ft | 386 kts | 239° |
| 2026-04-30 09:24 | -36.60827 | 147.22083 | 28928 ft | 389 kts | 239° |
| 2026-04-30 09:24 | -36.62349 | 147.19286 | 29256 ft | 391 kts | 239° |
| 2026-04-30 09:24 | -36.63875 | 147.16481 | 29580 ft | 393 kts | 239° |
| 2026-04-30 09:25 | -36.65412 | 147.13650 | 29908 ft | 395 kts | 240° |
| 2026-04-30 09:25 | -36.66951 | 147.10815 | 30243 ft | 396 kts | 240° |
| 2026-04-30 09:25 | -36.68503 | 147.07955 | 30423 ft | 402 kts | 240° |
| 2026-04-30 09:25 | -36.70086 | 147.05031 | 30410 ft | 412 kts | 240° |
| 2026-04-30 09:26 | -36.73355 | 146.98984 | 30432 ft | 429 kts | 240° |
| 2026-04-30 09:26 | -36.75040 | 146.95863 | 30238 ft | 442 kts | 240° |
| 2026-04-30 09:26 | -36.76791 | 146.92614 | 29754 ft | 460 kts | 239° |
| 2026-04-30 09:27 | -36.78608 | 146.89239 | 29318 ft | 477 kts | 239° |
| 2026-04-30 09:27 | -36.80471 | 146.85784 | 28862 ft | 479 kts | 239° |
| 2026-04-30 09:27 | -36.82315 | 146.82371 | 28402 ft | 470 kts | 239° |
| 2026-04-30 09:27 | -36.84127 | 146.79015 | 27962 ft | 462 kts | 239° |
| 2026-04-30 09:28 | -36.85903 | 146.75718 | 27520 ft | 454 kts | 239° |
| 2026-04-30 09:28 | -36.87656 | 146.72456 | 27093 ft | 447 kts | 239° |
| 2026-04-30 09:28 | -36.89374 | 146.69254 | 26667 ft | 441 kts | 240° |
| 2026-04-30 09:28 | -36.91065 | 146.66096 | 26262 ft | 435 kts | 240° |
| 2026-04-30 09:29 | -36.92739 | 146.62966 | 25850 ft | 432 kts | 240° |
| 2026-04-30 09:29 | -36.94433 | 146.59786 | 25476 ft | 450 kts | 240° |
| 2026-04-30 09:29 | -36.96203 | 146.56459 | 25099 ft | 468 kts | 240° |
| 2026-04-30 09:29 | -36.98021 | 146.53047 | 24713 ft | 473 kts | 239° |
| 2026-04-30 09:30 | -36.99838 | 146.49644 | 24320 ft | 468 kts | 239° |
| 2026-04-30 09:30 | -37.01640 | 146.46271 | 23926 ft | 464 kts | 240° |
| 2026-04-30 09:30 | -37.03419 | 146.42930 | 23465 ft | 460 kts | 240° |
| 2026-04-30 09:30 | -37.05188 | 146.39602 | 23013 ft | 457 kts | 240° |
| 2026-04-30 09:31 | -37.06939 | 146.36306 | 22517 ft | 451 kts | 240° |
| 2026-04-30 09:31 | -37.08664 | 146.33055 | 21963 ft | 445 kts | 240° |
| 2026-04-30 09:31 | -37.10361 | 146.29857 | 21440 ft | 438 kts | 240° |
| 2026-04-30 09:31 | -37.12014 | 146.26739 | 20920 ft | 432 kts | 240° |
| 2026-04-30 09:32 | -37.13662 | 146.23623 | 20415 ft | 427 kts | 240° |
| 2026-04-30 09:32 | -37.15291 | 146.20540 | 19904 ft | 422 kts | 240° |
| 2026-04-30 09:32 | -37.16900 | 146.17491 | 19415 ft | 417 kts | 240° |
| 2026-04-30 09:32 | -37.18493 | 146.14470 | 18926 ft | 413 kts | 240° |
| 2026-04-30 09:33 | -37.20066 | 146.11484 | 18413 ft | 409 kts | 240° |
| 2026-04-30 09:33 | -37.21624 | 146.08524 | 17859 ft | 405 kts | 240° |
| 2026-04-30 09:33 | -37.23170 | 146.05584 | 17309 ft | 401 kts | 240° |
| 2026-04-30 09:33 | -37.24701 | 146.02670 | 16786 ft | 398 kts | 240° |
| 2026-04-30 09:34 | -37.26216 | 145.99782 | 16252 ft | 394 kts | 240° |
| 2026-04-30 09:34 | -37.27720 | 145.96917 | 15743 ft | 391 kts | 240° |
| 2026-04-30 09:34 | -37.29210 | 145.94073 | 15237 ft | 388 kts | 239° |
| 2026-04-30 09:34 | -37.30688 | 145.91253 | 14731 ft | 385 kts | 239° |
| 2026-04-30 09:35 | -37.32156 | 145.88455 | 14248 ft | 382 kts | 239° |
| 2026-04-30 09:35 | -37.33616 | 145.85677 | 13709 ft | 380 kts | 239° |
| 2026-04-30 09:35 | -37.35059 | 145.82930 | 13420 ft | 371 kts | 239° |
| 2026-04-30 09:35 | -37.36450 | 145.80283 | 13357 ft | 356 kts | 239° |
| 2026-04-30 09:36 | -37.37788 | 145.77735 | 13344 ft | 342 kts | 239° |
| 2026-04-30 09:36 | -37.39068 | 145.75290 | 13333 ft | 328 kts | 240° |
| 2026-04-30 09:36 | -37.40292 | 145.72947 | 13330 ft | 314 kts | 240° |
| 2026-04-30 09:36 | -37.41470 | 145.70693 | 13328 ft | 301 kts | 240° |
| 2026-04-30 09:37 | -37.42596 | 145.68537 | 13324 ft | 289 kts | 240° |
| 2026-04-30 09:37 | -37.43678 | 145.66467 | 13331 ft | 279 kts | 240° |
| 2026-04-30 09:37 | -37.44734 | 145.64441 | 13330 ft | 277 kts | 241° |
| 2026-04-30 09:37 | -37.45591 | 145.62300 | 13357 ft | 274 kts | 253° |
| 2026-04-30 09:38 | -37.46209 | 145.60052 | 13352 ft | 276 kts | 256° |
| 2026-04-30 09:38 | -37.46797 | 145.57709 | 13345 ft | 279 kts | 256° |
| 2026-04-30 09:38 | -37.47382 | 145.55378 | 13355 ft | 280 kts | 256° |
| 2026-04-30 09:38 | -37.47964 | 145.53091 | 13335 ft | 276 kts | 256° |
| 2026-04-30 09:39 | -37.48565 | 145.50764 | 13151 ft | 278 kts | 255° |
| 2026-04-30 09:39 | -37.49408 | 145.48567 | 12678 ft | 291 kts | 231° |
| 2026-04-30 09:39 | -37.51118 | 145.47125 | 12305 ft | 300 kts | 201° |
| 2026-04-30 09:39 | -37.53117 | 145.46459 | 11953 ft | 302 kts | 199° |
| 2026-04-30 09:40 | -37.55105 | 145.45596 | 11550 ft | 301 kts | 211° |
| 2026-04-30 09:40 | -37.56669 | 145.43931 | 11158 ft | 294 kts | 235° |
| 2026-04-30 09:40 | -37.57893 | 145.41872 | 10791 ft | 294 kts | 238° |
| 2026-04-30 09:40 | -37.59087 | 145.39770 | 10409 ft | 295 kts | 238° |
| 2026-04-30 09:41 | -37.60285 | 145.37653 | 10021 ft | 297 kts | 238° |
| 2026-04-30 09:41 | -37.61492 | 145.35530 | 9600 ft | 298 kts | 238° |
| 2026-04-30 09:41 | -37.62708 | 145.33405 | 9189 ft | 299 kts | 237° |
| 2026-04-30 09:41 | -37.63931 | 145.31275 | 8771 ft | 300 kts | 237° |
| 2026-04-30 09:42 | -37.65157 | 145.29145 | 8387 ft | 301 kts | 237° |
| 2026-04-30 09:42 | -37.66391 | 145.27003 | 7993 ft | 302 kts | 238° |
| 2026-04-30 09:42 | -37.67627 | 145.24857 | 7605 ft | 303 kts | 237° |
| 2026-04-30 09:42 | -37.68868 | 145.22701 | 7217 ft | 304 kts | 238° |
| 2026-04-30 09:43 | -37.70113 | 145.20539 | 6847 ft | 305 kts | 237° |
| 2026-04-30 09:43 | -37.71359 | 145.18373 | 6433 ft | 305 kts | 238° |
| 2026-04-30 09:43 | -37.72612 | 145.16192 | 5988 ft | 306 kts | 238° |
| 2026-04-30 09:43 | -37.73839 | 145.14061 | 5810 ft | 298 kts | 238° |
| 2026-04-30 09:44 | -37.75069 | 145.11916 | 5302 ft | 303 kts | 238° |
| 2026-04-30 09:44 | -37.76315 | 145.09743 | 4815 ft | 307 kts | 238° |
| 2026-04-30 09:44 | -37.77578 | 145.07538 | 4312 ft | 311 kts | 238° |
| 2026-04-30 09:44 | -37.78842 | 145.05332 | 4070 ft | 306 kts | 238° |
| 2026-04-30 09:45 | -37.80068 | 145.03195 | 4010 ft | 294 kts | 238° |
| 2026-04-30 09:45 | -37.81204 | 145.01121 | 3990 ft | 278 kts | 247° |
| 2026-04-30 09:45 | -37.81751 | 144.98894 | 4013 ft | 257 kts | 263° |
| 2026-04-30 09:45 | -37.82117 | 144.96733 | 3998 ft | 245 kts | 263° |
| 2026-04-30 09:46 | -37.82471 | 144.94678 | 3983 ft | 233 kts | 263° |
| 2026-04-30 09:46 | -37.82753 | 144.92719 | 3992 ft | 218 kts | 266° |
| 2026-04-30 09:46 | -37.82974 | 144.90918 | 4002 ft | 203 kts | 267° |
| 2026-04-30 09:46 | -37.83129 | 144.89178 | 3995 ft | 193 kts | 281° |
| 2026-04-30 09:47 | -37.82708 | 144.87738 | 3996 ft | 162 kts | 312° |
| 2026-04-30 09:47 | -37.81879 | 144.86823 | 3994 ft | 157 kts | 332° |
| 2026-04-30 09:47 | -37.80832 | 144.86442 | 3626 ft | 154 kts | 351° |
| 2026-04-30 09:47 | -37.79801 | 144.86240 | 3263 ft | 146 kts | 351° |
| 2026-04-30 09:48 | -37.78822 | 144.86045 | 2902 ft | 139 kts | 351° |
| 2026-04-30 09:48 | -37.77882 | 144.85862 | 2534 ft | 134 kts | 352° |
| 2026-04-30 09:48 | -37.76968 | 144.85686 | 2191 ft | 131 kts | 352° |
| 2026-04-30 09:48 | -37.76073 | 144.85515 | 1846 ft | 130 kts | 352° |
| 2026-04-30 09:49 | -37.75170 | 144.85342 | 1494 ft | 133 kts | 353° |
| 2026-04-30 09:49 | -37.74222 | 144.85150 | 1231 ft | 145 kts | 351° |
| 2026-04-30 09:49 | -37.73229 | 144.84940 | 1173 ft | 139 kts | 352° |
| 2026-04-30 09:49 | -37.72217 | 144.84752 | 1063 ft | 156 kts | 353° |
| 2026-04-30 09:50 | -37.71174 | 144.84564 | 935 ft | 149 kts | 352° |
| 2026-04-30 09:50 | -37.70152 | 144.84368 | 684 ft | 148 kts | 353° |
| 2026-04-30 09:50 | -37.69143 | 144.84184 | 515 ft | 147 kts | 352° |
| 2026-04-30 09:50 | -37.68142 | 144.84017 | 353 ft | 141 kts | 352° |
| 2026-04-30 09:51 | -37.67308 | 144.83861 | 373 ft | 98 kts | 351° |
| 2026-04-30 09:51 | -37.67039 | 144.83825 | 384 ft | 9 kts | 17° |
| 2026-04-30 09:51 | -37.66957 | 144.83858 | 386 ft | 17 kts | 18° |
| 2026-04-30 09:51 | -37.66882 | 144.83893 | 389 ft | 0 kts | 21° |
| 2026-04-30 09:52 | -37.66872 | 144.83898 | 389 ft | 3 kts | 21° |
| 2026-04-30 09:53 | -37.66855 | 144.83906 | 390 ft | 3 kts | 20° |
| 2026-04-30 09:53 | -37.66838 | 144.83914 | 390 ft | 3 kts | 20° |
| 2026-04-30 09:53 | -37.66821 | 144.83922 | 391 ft | 3 kts | 20° |
| 2026-04-30 09:53 | -37.66804 | 144.83930 | 391 ft | 3 kts | 20° |
| 2026-04-30 09:54 | -37.66787 | 144.83938 | 392 ft | 2 kts | 21° |
| 2026-04-30 09:54 | -37.66770 | 144.83948 | 392 ft | 3 kts | 29° |
| 2026-04-30 09:54 | -37.66749 | 144.83970 | 393 ft | 4 kts | 44° |
| 2026-04-30 09:54 | -37.66731 | 144.84002 | 394 ft | 6 kts | 63° |
| 2026-04-30 09:55 | -37.66716 | 144.84080 | 393 ft | 11 kts | 85° |
| 2026-04-30 09:55 | -37.66714 | 144.84097 | 392 ft | 0 kts | 85° |
| 2026-04-30 09:55 | -37.66736 | 144.84149 | 393 ft | 11 kts | 136° |
| 2026-04-30 09:55 | -37.66807 | 144.84195 | 390 ft | 12 kts | 168° |
| 2026-04-30 09:56 | -37.66891 | 144.84212 | 388 ft | 13 kts | 172° |
| 2026-04-30 09:56 | -37.66911 | 144.84215 | 387 ft | 0 kts | 172° |
| 2026-04-30 09:56 | -37.66939 | 144.84220 | 386 ft | 12 kts | 172° |
| 2026-04-30 09:57 | -37.67036 | 144.84238 | 384 ft | 13 kts | 172° |
| 2026-04-30 09:57 | -37.67075 | 144.84289 | 384 ft | 6 kts | 90° |
| 2026-04-30 09:57 | -37.67065 | 144.84321 | 385 ft | 6 kts | 64° |
| 2026-04-30 09:57 | -37.67050 | 144.84384 | 386 ft | 6 kts | 80° |
| 2026-04-30 09:58 | -37.67039 | 144.84432 | 387 ft | 6 kts | 65° |